Time;durP1;ratioP1;P1;durP2;ratioP2;P2;SDS_P1;SDS_P2;PMS_P1;PMS_P2;Temp;Humidity;BMP_temperature;BMP_pressure;BME280_temperature;BME280_humidity;BME280_pressure;Samples;Min_cycle;Max_cycle;Signal;HPM_P1;HPM_P2
2022/08/17 00:01:20;;;;;;;9.73;9.10;;;;;;;19.42;67.42;92592.72;5041809;28;20196;-70
2022/08/17 00:03:47;;;;;;;10.20;9.50;;;;;;;19.47;67.45;92600.44;5038875;28;20212;-70
2022/08/17 00:06:17;;;;;;;9.97;9.33;;;;;;;19.53;68.23;92615.00;5039516;28;20186;-70
2022/08/17 00:08:46;;;;;;;10.43;9.73;;;;;;;19.49;68.73;92598.97;5039201;28;20263;-70
2022/08/17 00:11:17;;;;;;;10.20;9.57;;;;;;;19.43;68.53;92610.13;5041341;28;20233;-70
2022/08/17 00:13:48;;;;;;;9.75;8.95;;;;;;;19.55;69.22;92631.31;5039607;28;20325;-71
2022/08/17 00:16:18;;;;;;;10.27;9.47;;;;;;;19.35;69.64;92630.31;5040158;28;20222;-69
2022/08/17 00:18:44;;;;;;;11.30;10.17;;;;;;;19.16;69.98;92627.41;5039620;28;20229;-71
2022/08/17 00:21:11;;;;;;;10.60;9.40;;;;;;;19.23;69.72;92622.34;5042715;28;20194;-69
2022/08/17 00:23:39;;;;;;;11.13;10.30;;;;;;;19.09;69.27;92601.53;5040557;28;20181;-70
2022/08/17 00:26:04;;;;;;;10.47;9.77;;;;;;;19.16;69.96;92614.19;5038156;28;20912;-69
2022/08/17 00:28:30;;;;;;;11.00;10.10;;;;;;;19.12;70.66;92615.97;5041025;28;20194;-70
2022/08/17 00:30:55;;;;;;;9.80;9.20;;;;;;;19.13;71.32;92612.97;5042269;28;20202;-71
2022/08/17 00:33:24;;;;;;;11.37;10.47;;;;;;;19.18;71.64;92617.28;5041096;28;20207;-70
2022/08/17 00:35:50;;;;;;;10.33;9.60;;;;;;;19.15;71.35;92607.34;5041487;28;20319;-70
2022/08/17 00:38:17;;;;;;;12.10;11.03;;;;;;;19.08;71.09;92609.78;5040798;28;20200;-69
2022/08/17 00:40:48;;;;;;;10.17;9.57;;;;;;;19.07;71.46;92619.59;5038119;28;20248;-69
2022/08/17 00:43:24;;;;;;;9.53;8.83;;;;;;;19.04;71.47;92619.47;5039344;28;20189;-69
2022/08/17 00:45:50;;;;;;;10.30;9.60;;;;;;;19.01;71.35;92612.97;5037538;28;20248;-70
2022/08/17 00:48:15;;;;;;;9.47;8.93;;;;;;;18.93;71.91;92607.78;5040662;28;20198;-69
2022/08/17 00:50:56;;;;;;;10.00;9.27;;;;;;;18.77;71.59;92583.09;5040329;28;20224;-69
2022/08/17 00:53:23;;;;;;;11.27;10.60;;;;;;;18.80;72.06;92593.00;5040905;28;20679;-73
2022/08/17 00:55:48;;;;;;;10.60;9.80;;;;;;;18.90;72.33;92611.84;5041883;28;20254;-70
2022/08/17 00:58:14;;;;;;;10.03;9.23;;;;;;;18.73;73.38;92600.69;5039255;28;20188;-70
2022/08/17 01:00:44;;;;;;;10.17;9.57;;;;;;;18.74;73.60;92604.91;5038790;28;20248;-69
2022/08/17 01:03:15;;;;;;;10.17;9.03;;;;;;;18.77;73.40;92597.06;5038701;28;20208;-71
2022/08/17 01:05:41;;;;;;;10.00;9.30;;;;;;;18.72;73.50;92605.19;5040166;28;20239;-70
2022/08/17 01:08:11;;;;;;;10.20;9.57;;;;;;;18.45;73.59;92575.94;5038717;28;20311;-69
2022/08/17 01:10:46;;;;;;;10.93;10.07;;;;;;;18.74;73.14;92604.91;5041096;28;20212;-70
2022/08/17 01:13:13;;;;;;;11.57;10.67;;;;;;;18.61;73.55;92603.31;5039694;28;20201;-70
2022/08/17 01:15:45;;;;;;;10.17;9.57;;;;;;;18.51;73.35;92579.94;5038208;28;20238;-70
2022/08/17 01:18:12;;;;;;;10.30;9.50;;;;;;;18.64;73.33;92602.66;5041546;28;20251;-69
2022/08/17 01:20:43;;;;;;;11.13;10.20;;;;;;;18.62;73.59;92596.91;5037921;28;20224;-70
2022/08/17 01:23:08;;;;;;;10.37;9.60;;;;;;;18.71;73.67;92605.53;5042447;28;20216;-69
2022/08/17 01:25:34;;;;;;;10.73;9.90;;;;;;;18.67;73.89;92602.78;5039830;28;20235;-72
2022/08/17 01:28:01;;;;;;;10.07;9.40;;;;;;;18.52;74.16;92592.06;5039201;28;20191;-70
2022/08/17 01:30:27;;;;;;;10.60;9.90;;;;;;;18.46;74.77;92604.69;5039268;28;20284;-70
2022/08/17 01:32:52;;;;;;;10.93;10.07;;;;;;;18.58;74.72;92603.97;5037144;28;20207;-70
2022/08/17 01:35:18;;;;;;;10.33;9.27;;;;;;;18.65;74.80;92607.63;5037796;28;20252;-69
2022/08/17 01:37:43;;;;;;;10.87;10.00;;;;;;;18.60;74.66;92610.47;5038915;28;20195;-70
2022/08/17 01:40:32;;;;;;;11.07;10.17;;;;;;;18.55;74.77;92597.44;5041478;28;20220;-70
2022/08/17 01:43:02;;;;;;;10.50;9.90;;;;;;;18.24;74.38;92562.00;5041539;28;20305;-70
2022/08/17 01:45:32;;;;;;;10.73;10.03;;;;;;;18.52;74.33;92602.63;5037063;28;20232;-70
2022/08/17 01:47:59;;;;;;;11.73;11.00;;;;;;;18.46;74.26;92594.13;5039289;28;20255;-69
2022/08/17 01:50:29;;;;;;;10.77;10.07;;;;;;;18.34;75.48;92595.94;5038973;28;20731;-70
2022/08/17 01:53:00;;;;;;;11.40;10.50;;;;;;;18.28;74.96;92578.72;5031832;28;20220;-71
2022/08/17 01:55:32;;;;;;;11.03;10.10;;;;;;;18.33;74.67;92583.81;5038181;28;20244;-70
2022/08/17 01:57:58;;;;;;;11.40;10.67;;;;;;;18.37;73.52;92590.78;5037020;28;20197;-70
2022/08/17 02:00:24;;;;;;;10.30;9.60;;;;;;;18.43;74.24;92594.00;5035670;28;20259;-70
2022/08/17 02:02:49;;;;;;;11.40;10.40;;;;;;;18.42;74.41;92581.88;5037874;28;20212;-72
2022/08/17 02:05:15;;;;;;;11.67;10.67;;;;;;;18.39;75.01;92587.84;5036639;28;20229;-70
2022/08/17 02:07:40;;;;;;;11.40;10.57;;;;;;;18.41;75.42;92593.56;5034935;28;20274;-70
2022/08/17 02:10:07;;;;;;;12.10;11.03;;;;;;;18.47;75.50;92600.19;5036865;28;20214;-71
2022/08/17 02:12:34;;;;;;;12.40;11.40;;;;;;;18.39;75.48;92604.47;5038094;28;20199;-70
2022/08/17 02:15:00;;;;;;;11.27;10.20;;;;;;;18.40;75.54;92607.88;5037429;28;20239;-70
2022/08/17 02:17:25;;;;;;;11.20;10.10;;;;;;;18.28;77.14;92613.88;5037582;28;20205;-70
2022/08/17 02:19:51;;;;;;;10.90;10.10;;;;;;;18.10;77.31;92591.31;5037777;28;20993;-70
2022/08/17 02:22:17;;;;;;;11.07;10.27;;;;;;;17.95;77.68;92581.38;5037490;28;20215;-70
2022/08/17 02:24:43;;;;;;;11.03;10.13;;;;;;;18.13;77.17;92611.06;5036970;28;20235;-70
2022/08/17 02:27:08;;;;;;;11.73;10.83;;;;;;;18.08;77.65;92603.31;5037765;28;20196;-70
2022/08/17 02:29:34;;;;;;;12.67;11.67;;;;;;;18.19;76.84;92605.25;5038084;28;20228;-70
2022/08/17 02:32:00;;;;;;;11.47;10.50;;;;;;;18.06;77.30;92600.22;5040900;28;20221;-70
2022/08/17 02:34:26;;;;;;;11.03;10.13;;;;;;;17.77;77.80;92589.75;5037254;28;20222;-71
2022/08/17 02:36:52;;;;;;;11.70;10.80;;;;;;;17.85;77.84;92602.13;5037115;28;20197;-70
2022/08/17 02:39:18;;;;;;;10.87;10.07;;;;;;;17.86;79.11;92611.56;5036026;28;20226;-70
2022/08/17 02:41:43;;;;;;;11.37;10.37;;;;;;;17.78;79.83;92605.28;5041231;28;20242;-70
2022/08/17 02:44:10;;;;;;;11.37;10.67;;;;;;;17.73;79.53;92591.50;5039397;28;20230;-71
2022/08/17 02:46:35;;;;;;;12.33;11.33;;;;;;;17.88;78.91;92604.13;5035944;28;20183;-70
2022/08/17 02:49:01;;;;;;;12.17;11.23;;;;;;;17.89;78.90;92606.44;5034119;28;20255;-70
2022/08/17 02:51:27;;;;;;;11.10;10.40;;;;;;;17.89;78.07;92605.66;5038724;28;20189;-70
2022/08/17 02:53:53;;;;;;;11.83;11.03;;;;;;;17.82;78.26;92594.84;5038334;28;20222;-70
2022/08/17 02:56:18;;;;;;;11.57;10.77;;;;;;;17.94;78.43;92603.59;5037519;28;20194;-70
2022/08/17 02:58:45;;;;;;;10.97;10.37;;;;;;;17.82;78.75;92605.41;5037664;28;20245;-70
2022/08/17 03:01:11;;;;;;;11.63;10.83;;;;;;;17.91;78.31;92611.38;5038540;28;20198;-70
2022/08/17 03:03:37;;;;;;;11.30;10.30;;;;;;;17.96;78.33;92611.19;5041634;28;20184;-71
2022/08/17 03:06:03;;;;;;;12.07;11.10;;;;;;;17.90;78.30;92618.53;5038728;28;20202;-70
2022/08/17 03:08:29;;;;;;;11.27;10.43;;;;;;;17.85;78.01;92610.03;5037828;28;20215;-71
2022/08/17 03:10:55;;;;;;;11.40;10.60;;;;;;;17.89;78.17;92610.94;5036445;28;20219;-70
2022/08/17 03:13:21;;;;;;;11.77;10.87;;;;;;;17.90;78.92;92621.19;5037310;28;20673;-70
2022/08/17 03:15:47;;;;;;;11.80;10.83;;;;;;;17.89;79.26;92622.28;5036700;28;20215;-70
2022/08/17 03:18:16;;;;;;;11.33;10.53;;;;;;;17.75;79.08;92599.84;5039139;28;20753;-70
2022/08/17 03:20:42;;;;;;;11.53;10.63;;;;;;;17.84;79.10;92624.34;5037762;28;20795;-70
2022/08/17 03:23:08;;;;;;;11.63;10.83;;;;;;;17.78;78.63;92610.56;5039647;28;20183;-71
2022/08/17 03:25:38;;;;;;;11.27;10.47;;;;;;;17.79;79.55;92632.47;5036682;28;20299;-71
2022/08/17 03:28:05;;;;;;;11.77;11.00;;;;;;;17.77;79.26;92637.28;5039384;28;20234;-71
2022/08/17 03:30:31;;;;;;;11.20;10.30;;;;;;;17.78;79.58;92628.25;5035099;28;20222;-70
2022/08/17 03:32:58;;;;;;;10.13;9.33;;;;;;;17.82;79.77;92615.97;5038594;28;20202;-70
2022/08/17 03:35:27;;;;;;;12.47;11.27;;;;;;;17.86;79.37;92633.50;5034353;28;20230;-70
2022/08/17 03:37:53;;;;;;;11.67;10.77;;;;;;;17.78;79.83;92630.91;5036921;28;20195;-70
2022/08/17 03:40:19;;;;;;;11.90;10.80;;;;;;;17.65;80.09;92616.09;5038957;28;20286;-70
2022/08/17 03:42:46;;;;;;;12.47;11.37;;;;;;;17.77;80.13;92629.34;5036099;28;20221;-71
2022/08/17 03:45:16;;;;;;;12.23;11.23;;;;;;;17.67;79.49;92600.69;5040403;28;20242;-70
2022/08/17 03:58:45;;;;;;;11.80;10.80;;;;;;;18.08;79.51;92649.03;5039423;28;20232;-70
2022/08/17 04:01:11;;;;;;;10.53;9.70;;;;;;;18.09;79.52;92637.34;5041398;28;20182;-69
2022/08/17 04:03:36;;;;;;;13.57;11.73;;;;;;;17.92;79.83;92615.56;5041734;28;20202;-70
2022/08/17 04:06:01;;;;;;;11.00;10.20;;;;;;;18.18;79.81;92651.25;5039309;28;20189;-71
2022/08/17 04:08:28;;;;;;;12.47;11.53;;;;;;;18.29;79.56;92636.56;5041952;28;21257;-70
2022/08/17 04:10:55;;;;;;;11.93;10.83;;;;;;;18.27;79.56;92638.00;5040804;28;20188;-71
2022/08/17 04:13:20;;;;;;;11.60;10.40;;;;;;;18.48;79.32;92638.75;5041715;28;20219;-70
2022/08/17 04:15:47;;;;;;;11.60;10.67;;;;;;;18.50;79.43;92632.06;5039526;28;20228;-71
2022/08/17 04:18:16;;;;;;;11.77;10.67;;;;;;;18.51;79.59;92651.31;5040460;28;20259;-70
2022/08/17 04:20:42;;;;;;;11.20;10.33;;;;;;;18.52;79.47;92642.31;5039880;28;20227;-71
2022/08/17 04:23:11;;;;;;;11.67;10.67;;;;;;;18.73;78.96;92651.72;5038338;28;20205;-70
2022/08/17 04:25:41;;;;;;;10.93;10.13;;;;;;;18.60;79.02;92636.16;5038395;28;20227;-70
2022/08/17 04:28:06;;;;;;;11.27;10.27;;;;;;;18.81;78.92;92658.03;5035510;28;20201;-71
2022/08/17 04:30:34;;;;;;;11.13;10.23;;;;;;;18.97;78.88;92661.59;5041700;28;20930;-70
2022/08/17 04:33:08;;;;;;;11.10;10.20;;;;;;;18.77;78.66;92643.91;5039911;28;20184;-70
2022/08/17 04:35:38;;;;;;;12.33;10.47;;;;;;;18.89;78.13;92673.81;5035125;28;20460;-71
2022/08/17 04:38:05;;;;;;;14.90;10.77;;;;;;;19.05;77.78;92652.78;5040013;28;20210;-68
2022/08/17 04:43:19;;;;;;;11.47;10.47;;;;;;;19.35;76.56;92680.63;5039865;28;20208;-69
2022/08/17 04:45:57;;;;;;;11.53;10.43;;;;;;;19.46;76.64;92667.72;5039498;28;20227;-70
2022/08/17 04:48:30;;;;;;;12.87;11.60;;;;;;;19.58;76.34;92684.38;5039205;28;20217;-71
2022/08/17 04:50:58;;;;;;;11.87;10.87;;;;;;;19.70;76.02;92679.09;5036951;28;20283;-70
2022/08/17 04:53:23;;;;;;;12.73;11.53;;;;;;;19.82;75.19;92679.09;5038275;28;20207;-71
2022/08/17 04:55:51;;;;;;;11.95;10.95;;;;;;;20.07;74.07;92693.06;5035596;28;20193;-71
2022/08/17 04:58:17;;;;;;;11.57;10.63;;;;;;;20.07;74.17;92691.19;5037490;28;20261;-71
2022/08/17 05:00:42;;;;;;;11.60;10.27;;;;;;;19.71;73.66;92680.63;5031048;28;20222;-69
2022/08/17 05:03:08;;;;;;;11.57;10.73;;;;;;;19.84;73.82;92695.44;5039398;28;20204;-69
2022/08/17 05:05:37;;;;;;;12.40;11.50;;;;;;;19.81;74.10;92685.50;5037359;28;21131;-70
2022/08/17 05:08:04;;;;;;;12.87;11.73;;;;;;;20.05;73.99;92690.75;5039396;28;20248;-70
2022/08/17 05:10:33;;;;;;;10.90;10.20;;;;;;;20.15;72.53;92686.91;5034006;28;20281;-70
2022/08/17 05:13:17;;;;;;;11.50;10.60;;;;;;;20.39;70.54;92684.97;5035232;28;20210;-69
2022/08/17 05:15:46;;;;;;;11.63;10.52;;;;;;;20.29;71.99;92695.28;5035391;28;20239;-69
2022/08/17 05:18:11;;;;;;;12.90;11.75;;;;;;;20.46;70.30;92695.78;5036724;28;20193;-70
2022/08/17 05:20:38;;;;;;;12.57;11.52;;;;;;;20.64;70.16;92690.94;5035011;28;20321;-70
2022/08/17 05:23:08;;;;;;;11.68;10.77;;;;;;;20.73;69.33;92700.31;5035068;28;20213;-70
2022/08/17 05:25:37;;;;;;;12.00;11.00;;;;;;;20.64;69.81;92675.03;5034029;28;20233;-69
2022/08/17 05:28:04;;;;;;;11.25;10.45;;;;;;;20.83;69.97;92692.97;5034501;28;20954;-70
2022/08/17 05:30:29;;;;;;;11.07;10.35;;;;;;;20.70;70.07;92693.03;5035336;28;20221;-70
2022/08/17 05:32:58;;;;;;;13.18;11.95;;;;;;;20.69;70.15;92693.34;5036002;28;20217;-69
2022/08/17 05:35:26;;;;;;;12.93;11.02;;;;;;;21.01;69.99;92699.56;5036377;28;20295;-69
2022/08/17 05:37:52;;;;;;;11.20;10.27;;;;;;;21.12;68.61;92692.66;5071333;28;20266;-70
2022/08/17 05:40:20;;;;;;;12.48;11.20;;;;;;;21.53;67.13;92708.06;5037152;28;20259;-70
2022/08/17 05:42:46;;;;;;;11.90;11.02;;;;;;;21.69;66.53;92711.50;5040228;28;20258;-72
2022/08/17 05:45:14;;;;;;;12.60;11.30;;;;;;;21.77;66.78;92706.06;5039201;28;20228;-71
2022/08/17 05:47:41;;;;;;;13.32;10.55;;;;;;;21.78;65.91;92710.25;5036658;28;21206;-70
2022/08/17 05:50:08;;;;;;;12.73;11.48;;;;;;;22.31;65.08;92714.09;5037997;28;20235;-71
2022/08/17 05:52:55;;;;;;;15.40;12.15;;;;;;;22.44;63.37;92712.88;5037938;28;20195;-70
2022/08/17 05:55:29;;;;;;;12.52;11.45;;;;;;;25.74;54.15;92719.84;5038680;28;20229;-71
2022/08/17 05:58:12;;;;;;;12.57;11.35;;;;;;;26.25;51.99;92721.44;5039009;28;20211;-72
2022/08/17 06:00:47;;;;;;;15.63;11.38;;;;;;;25.78;51.33;92716.06;5032814;28;20225;-71
2022/08/17 06:03:15;;;;;;;11.63;10.63;;;;;;;25.68;52.29;92719.44;5037818;28;20187;-71
2022/08/17 06:06:17;;;;;;;11.57;10.70;;;;;;;27.14;48.45;92728.03;5034846;28;20343;-71
2022/08/17 06:08:50;;;;;;;11.57;10.48;;;;;;;29.87;41.82;92726.19;5033709;28;20229;-73
2022/08/17 06:11:30;;;;;;;11.65;10.65;;;;;;;31.25;38.83;92733.38;5034752;28;20195;-71
2022/08/17 06:14:28;;;;;;;13.15;10.35;;;;;;;34.67;32.01;92739.56;5038528;28;20276;-72
2022/08/17 06:16:59;;;;;;;12.75;11.45;;;;;;;34.48;32.16;92740.41;5037232;28;20196;-71
2022/08/17 06:19:33;;;;;;;10.70;9.88;;;;;;;33.90;32.37;92744.84;5037804;28;20225;-70
2022/08/17 06:22:01;;;;;;;12.85;11.57;;;;;;;30.69;37.30;92730.53;5033644;28;20181;-70
2022/08/17 06:24:46;;;;;;;12.23;11.18;;;;;;;27.38;45.38;92711.31;5031117;28;20233;-71
2022/08/17 06:27:18;;;;;;;12.63;11.45;;;;;;;25.38;52.12;92721.44;5032960;28;20205;-70
2022/08/17 06:29:57;;;;;;;12.00;10.75;;;;;;;25.13;53.62;92720.38;5034771;28;20230;-70
2022/08/17 06:32:24;;;;;;;13.57;11.82;;;;;;;24.22;55.41;92716.50;5030468;28;20245;-70
2022/08/17 06:34:51;;;;;;;15.93;14.73;;;;;;;22.76;60.56;92708.97;5035130;28;20237;-70
2022/08/17 06:37:37;;;;;;;13.18;11.88;;;;;;;23.86;58.31;92717.81;5034479;28;20189;-69
2022/08/17 06:40:25;;;;;;;14.15;12.48;;;;;;;24.01;57.65;92718.84;5037429;28;20255;-70
2022/08/17 06:43:11;;;;;;;12.82;11.43;;;;;;;23.52;59.26;92714.22;5036426;28;20284;-69
2022/08/17 06:45:48;;;;;;;16.13;11.10;;;;;;;22.96;60.75;92685.75;5036948;28;20346;-71
2022/08/17 06:48:41;;;;;;;14.30;12.18;;;;;;;23.73;58.22;92725.25;5036439;28;20220;-70
2022/08/17 06:51:20;;;;;;;14.27;12.93;;;;;;;22.67;62.20;92711.09;5036923;28;20266;-69
2022/08/17 06:54:01;;;;;;;13.48;12.27;;;;;;;23.08;61.83;92720.25;5069364;28;20247;-70
2022/08/17 06:56:40;;;;;;;14.63;12.70;;;;;;;23.19;62.30;92719.31;5037047;28;20223;-69
2022/08/17 06:59:09;;;;;;;12.75;11.65;;;;;;;23.82;59.66;92716.22;5037799;28;20286;-73
2022/08/17 07:01:37;;;;;;;13.48;12.32;;;;;;;24.10;57.90;92716.69;5031694;28;20189;-69
2022/08/17 07:04:15;;;;;;;12.60;11.40;;;;;;;23.09;60.97;92681.84;5036021;28;20305;-71
2022/08/17 07:06:51;;;;;;;15.05;12.52;;;;;;;23.30;61.05;92716.88;5034433;28;20232;-71
2022/08/17 07:09:34;;;;;;;18.73;12.60;;;;;;;24.08;58.49;92714.38;5036096;28;20296;-71
2022/08/17 07:12:14;;;;;;;17.30;11.63;;;;;;;24.03;59.77;92721.94;5036529;28;20185;-70
2022/08/17 07:14:55;;;;;;;12.35;11.23;;;;;;;24.23;58.70;92718.81;5036715;28;20256;-70
2022/08/17 07:17:23;;;;;;;13.35;11.82;;;;;;;24.35;57.79;92728.50;5034859;28;20188;-71
2022/08/17 07:19:53;;;;;;;12.27;11.02;;;;;;;24.40;56.18;92722.84;5040051;28;20237;-71
2022/08/17 07:22:29;;;;;;;14.60;12.07;;;;;;;23.98;58.72;92719.56;5036013;28;20201;-70
2022/08/17 07:25:01;;;;;;;12.65;11.50;;;;;;;24.52;57.12;92712.72;5042462;28;20240;-71
2022/08/17 07:27:31;;;;;;;12.43;11.40;;;;;;;24.49;58.98;92724.13;5040114;28;20196;-71
2022/08/17 07:29:59;;;;;;;13.85;11.95;;;;;;;24.83;57.27;92727.63;5040823;28;20232;-70
2022/08/17 07:32:30;;;;;;;12.63;11.52;;;;;;;24.97;55.97;92709.09;5039055;28;20189;-70
2022/08/17 07:35:00;;;;;;;13.85;11.80;;;;;;;24.69;55.37;92724.78;5039514;28;20233;-71
2022/08/17 07:37:26;;;;;;;11.75;10.75;;;;;;;25.09;54.70;92719.56;5041108;28;20236;-71
2022/08/17 07:39:51;;;;;;;11.60;10.50;;;;;;;25.14;55.72;92722.66;5041534;28;20229;-71
2022/08/17 07:42:17;;;;;;;12.98;11.30;;;;;;;24.92;55.80;92714.75;5039589;28;20189;-70
2022/08/17 07:44:52;;;;;;;12.32;11.13;;;;;;;25.44;54.62;92717.28;5039715;28;20248;-71
2022/08/17 07:50:25;;;;;;;10.98;10.18;;;;;;;25.48;53.68;92722.66;5041185;28;20260;-70
2022/08/17 07:52:50;;;;;;;11.48;10.38;;;;;;;25.29;53.37;92720.94;5037967;28;20195;-69
2022/08/17 07:55:33;;;;;;;11.32;10.40;;;;;;;25.76;51.32;92729.03;5037257;28;20248;-70
2022/08/17 07:57:59;;;;;;;12.60;11.32;;;;;;;25.50;51.98;92731.84;5038626;28;20203;-71
2022/08/17 08:00:25;;;;;;;11.82;10.75;;;;;;;25.71;51.27;92723.25;5040018;28;20234;-71
2022/08/17 08:03:05;;;;;;;12.73;11.68;;;;;;;25.66;49.58;92721.69;5041149;28;20190;-71
2022/08/17 08:05:30;;;;;;;13.52;12.25;;;;;;;26.06;49.16;92719.00;5039076;28;20233;-70
2022/08/17 08:07:58;;;;;;;12.82;11.30;;;;;;;25.92;51.60;92718.06;5038993;28;20229;-69
2022/08/17 08:10:26;;;;;;;13.20;12.13;;;;;;;25.50;51.19;92718.47;5067838;28;20225;-71
2022/08/17 08:13:10;;;;;;;12.57;11.48;;;;;;;25.72;50.88;92714.88;5038455;28;20221;-71
2022/08/17 08:15:41;;;;;;;13.07;12.07;;;;;;;25.69;49.75;92720.19;5035246;28;20234;-71
2022/08/17 08:18:27;;;;;;;11.70;10.90;;;;;;;25.82;49.33;92714.19;5038002;28;20197;-72
2022/08/17 08:21:31;;;;;;;10.55;9.68;;;;;;;25.71;48.68;92710.66;5039526;28;20305;-70
2022/08/17 08:24:22;;;;;;;11.40;10.55;;;;;;;26.02;49.09;92718.22;5038496;28;20225;-70
2022/08/17 08:27:10;;;;;;;11.85;10.98;;;;;;;25.89;49.49;92708.91;5039911;28;20221;-71
2022/08/17 08:29:36;;;;;;;11.70;10.90;;;;;;;26.20;50.43;92713.75;5038565;28;20229;-70
2022/08/17 08:32:14;;;;;;;12.20;11.07;;;;;;;26.29;49.84;92716.13;5038536;28;20201;-69
2022/08/17 08:34:58;;;;;;;12.45;11.15;;;;;;;26.21;47.47;92709.91;5037029;28;20230;-69
2022/08/17 08:37:29;;;;;;;10.45;9.63;;;;;;;26.06;48.34;92705.63;5039381;28;20200;-70
2022/08/17 08:40:01;;;;;;;11.60;10.80;;;;;;;26.33;51.32;92700.81;5038286;28;20248;-69
2022/08/17 08:42:42;;;;;;;10.50;9.73;;;;;;;26.34;47.85;92708.47;5039098;28;20201;-71
2022/08/17 08:45:40;;;;;;;10.35;9.45;;;;;;;26.41;47.49;92708.50;5039261;28;20237;-70
2022/08/17 08:48:12;;;;;;;10.55;9.55;;;;;;;26.54;48.26;92701.72;4999733;28;20223;-72
2022/08/17 08:50:45;;;;;;;10.10;9.25;;;;;;;26.99;46.16;92719.16;5038907;28;20230;-71
2022/08/17 08:53:13;;;;;;;10.35;9.52;;;;;;;26.29;47.34;92706.16;5038682;28;20250;-70
2022/08/17 08:55:52;;;;;;;9.65;9.05;;;;;;;26.48;47.56;92713.16;5038528;28;20223;-70
2022/08/17 08:58:20;;;;;;;11.00;10.05;;;;;;;26.56;46.66;92707.47;5039196;28;20193;-70
2022/08/17 09:00:52;;;;;;;10.65;9.88;;;;;;;26.69;46.44;92695.31;5035850;28;20286;-69
2022/08/17 09:03:51;;;;;;;10.40;9.70;;;;;;;26.69;45.19;92695.31;5039833;28;20194;-71
2022/08/17 09:06:38;;;;;;;10.05;9.30;;;;;;;26.84;44.88;92690.00;5037991;28;20218;-71
2022/08/17 09:09:06;;;;;;;10.52;9.55;;;;;;;26.96;43.96;92700.41;5036056;28;20238;-70
2022/08/17 09:12:00;;;;;;;9.90;9.20;;;;;;;27.11;42.60;92702.75;5037459;28;20183;-71
2022/08/17 09:14:34;;;;;;;8.95;8.27;;;;;;;26.85;41.28;92699.59;5036600;28;20267;-70
2022/08/17 09:17:03;;;;;;;9.20;8.63;;;;;;;27.08;43.72;92710.78;5038016;28;20201;-71
2022/08/17 09:19:35;;;;;;;9.55;8.75;;;;;;;26.96;41.81;92705.78;5037122;28;20227;-71
2022/08/17 09:22:16;;;;;;;8.85;8.18;;;;;;;26.83;42.84;92709.91;5038490;28;20258;-71
2022/08/17 09:24:48;;;;;;;8.68;8.18;;;;;;;27.22;43.34;92702.78;5036950;28;20264;-71
2022/08/17 09:27:17;;;;;;;9.20;8.38;;;;;;;27.07;42.12;92701.97;5037899;28;20195;-72
2022/08/17 09:29:48;;;;;;;8.90;8.20;;;;;;;27.31;41.98;92700.53;5037458;28;20225;-71
2022/08/17 09:32:20;;;;;;;8.77;8.20;;;;;;;27.52;41.52;92705.97;5035726;28;20203;-70
2022/08/17 09:34:55;;;;;;;9.75;8.95;;;;;;;27.55;40.17;92697.16;5036765;28;20231;-71
2022/08/17 09:37:31;;;;;;;9.05;8.35;;;;;;;27.22;40.80;92702.78;5037876;28;20206;-71
2022/08/17 09:40:27;;;;;;;8.70;8.00;;;;;;;27.09;41.00;92704.28;5034264;28;20272;-72
2022/08/17 09:42:58;;;;;;;9.32;8.48;;;;;;;27.18;40.49;92697.41;5036352;28;20210;-70
2022/08/17 09:45:39;;;;;;;9.90;8.93;;;;;;;27.12;41.08;92696.25;5034663;28;20254;-71
2022/08/17 09:48:10;;;;;;;9.18;8.38;;;;;;;27.18;41.37;92702.00;5036924;28;20198;-71
2022/08/17 09:50:44;;;;;;;9.23;8.55;;;;;;;27.51;41.00;92693.69;5038052;28;20245;-71
2022/08/17 09:53:10;;;;;;;8.88;7.97;;;;;;;27.38;41.53;92711.31;5037840;28;20197;-70
2022/08/17 09:55:41;;;;;;;9.13;8.45;;;;;;;27.49;41.87;92698.66;5036670;28;20217;-71
2022/08/17 09:58:36;;;;;;;9.05;8.32;;;;;;;27.44;42.13;92702.47;5036455;28;20723;-72
2022/08/17 10:01:21;;;;;;;9.02;8.20;;;;;;;27.27;41.33;92699.78;5030368;28;20281;-71
2022/08/17 10:04:12;;;;;;;10.05;8.15;;;;;;;27.09;41.37;92704.28;5034187;28;20292;-71
2022/08/17 10:07:05;;;;;;;8.75;8.15;;;;;;;27.49;41.50;92693.28;5037189;28;20226;-71
2022/08/17 10:09:37;;;;;;;8.73;8.13;;;;;;;27.66;41.76;92696.00;5034293;28;20256;-72
2022/08/17 10:12:15;;;;;;;9.90;8.48;;;;;;;27.21;39.14;92701.25;5035891;28;20313;-71
2022/08/17 10:14:56;;;;;;;8.65;8.00;;;;;;;27.58;39.86;92686.41;5034498;28;20292;-71
2022/08/17 10:17:42;;;;;;;8.85;8.18;;;;;;;27.66;38.76;92689.88;5043803;28;20201;-71
2022/08/17 10:20:15;;;;;;;8.82;8.13;;;;;;;27.65;39.60;92682.97;5036956;28;20233;-71
2022/08/17 10:28:28;;;;;;;9.27;8.57;;;;;;;27.81;39.50;92678.00;5037188;28;20209;-72
2022/08/17 10:30:56;;;;;;;8.90;8.20;;;;;;;27.80;39.39;92671.84;5036714;28;20216;-70
2022/08/17 10:33:31;;;;;;;9.20;8.50;;;;;;;28.09;38.20;92686.81;5036110;28;20266;-74
2022/08/17 10:36:11;;;;;;;9.50;8.35;;;;;;;27.69;39.68;92673.03;5037726;28;20194;-72
2022/08/17 10:38:48;;;;;;;8.98;8.38;;;;;;;27.63;40.30;92659.19;5033891;28;20191;-73
2022/08/17 10:41:30;;;;;;;9.15;8.55;;;;;;;27.73;40.37;92671.88;5036012;28;20175;-71
2022/08/17 10:44:02;;;;;;;9.18;8.40;;;;;;;27.84;39.59;92683.38;5032536;28;20233;-72
2022/08/17 10:46:28;;;;;;;8.38;7.88;;;;;;;27.80;39.45;92679.16;5034643;28;20182;-71
2022/08/17 10:49:13;;;;;;;9.07;7.93;;;;;;;27.64;38.39;92676.09;5033301;28;20245;-71
2022/08/17 10:51:40;;;;;;;9.43;8.68;;;;;;;27.68;39.04;92666.09;5035266;28;20175;-72
2022/08/17 10:54:33;;;;;;;8.93;8.23;;;;;;;28.08;39.02;92657.69;5032416;28;20226;-72
2022/08/17 10:56:59;;;;;;;8.93;8.20;;;;;;;28.14;37.30;92669.59;5037796;28;20196;-71
2022/08/17 10:59:33;;;;;;;9.27;8.57;;;;;;;28.29;37.53;92665.72;5035131;28;20622;-72
2022/08/17 11:02:11;;;;;;;9.60;8.43;;;;;;;28.42;37.90;92666.84;5038885;28;20204;-76
2022/08/17 11:05:05;;;;;;;8.85;8.25;;;;;;;28.43;37.79;92665.69;5037878;28;20242;-70
2022/08/17 11:07:42;;;;;;;8.63;7.97;;;;;;;28.19;36.58;92658.44;5029831;28;20229;-71
2022/08/17 11:10:22;;;;;;;9.50;8.73;;;;;;;28.61;36.45;92663.00;5037016;28;20223;-71
2022/08/17 11:13:28;;;;;;;9.68;8.98;;;;;;;28.75;35.69;92663.69;5037121;28;20190;-70
2022/08/17 11:15:53;;;;;;;8.85;8.25;;;;;;;28.85;35.57;92668.28;5037384;28;20222;-69
2022/08/17 11:18:44;;;;;;;9.85;9.05;;;;;;;28.60;35.71;92662.22;5037945;28;20252;-69
2022/08/17 11:21:34;;;;;;;9.95;8.93;;;;;;;28.59;36.43;92657.22;5067153;28;20230;-68
2022/08/17 11:24:17;;;;;;;9.93;9.10;;;;;;;28.69;35.50;92664.47;5033327;28;20231;-69
2022/08/17 11:26:59;;;;;;;9.35;8.45;;;;;;;28.87;34.84;92670.56;5034335;28;20197;-69
2022/08/17 11:29:34;;;;;;;9.38;8.63;;;;;;;29.10;34.70;92662.81;5034642;28;20268;-72
2022/08/17 11:32:12;;;;;;;8.70;7.80;;;;;;;28.88;34.08;92664.81;5035961;28;20181;-71
2022/08/17 11:34:43;;;;;;;7.90;7.35;;;;;;;28.90;34.21;92662.50;5039307;28;20224;-72
2022/08/17 11:37:44;;;;;;;9.60;8.57;;;;;;;28.72;34.82;92669.84;5036225;28;20191;-70
2022/08/17 11:40:33;;;;;;;8.85;8.15;;;;;;;28.95;34.91;92667.44;5015792;28;20249;-71
2022/08/17 11:43:07;;;;;;;8.38;7.88;;;;;;;29.10;32.25;92670.88;5037843;28;20245;-71
2022/08/17 11:45:35;;;;;;;8.15;7.50;;;;;;;29.17;31.36;92679.66;5034807;28;20216;-71
2022/08/17 11:54:35;;;;;;;8.30;7.70;;;;;;;29.40;32.77;92673.78;4968005;28;20229;-71
2022/08/17 11:57:25;;;;;;;8.43;7.88;;;;;;;28.96;33.78;92682.44;5035004;28;20218;-71
2022/08/17 11:59:57;;;;;;;8.10;7.38;;;;;;;29.31;31.27;92674.22;5036812;28;20231;-72
2022/08/17 12:02:26;;;;;;;7.50;7.10;;;;;;;29.46;32.37;92674.91;5037064;28;20182;-70
2022/08/17 12:05:11;;;;;;;8.80;8.15;;;;;;;29.54;36.90;92682.53;5036046;28;20233;-71
2022/08/17 12:07:42;;;;;;;9.75;9.05;;;;;;;29.23;40.04;92683.47;5038152;28;20516;-71
2022/08/17 12:10:11;;;;;;;10.63;9.80;;;;;;;29.12;40.09;92682.75;5039848;28;20231;-70
2022/08/17 12:12:42;;;;;;;9.23;8.50;;;;;;;29.23;39.92;92667.34;5039930;28;20177;-71
2022/08/17 12:15:16;;;;;;;9.57;8.98;;;;;;;28.86;41.36;92679.81;5040704;28;20233;-70